Time;durP1;ratioP1;P1;durP2;ratioP2;P2;SDS_P1;SDS_P2;PMS_P1;PMS_P2;Temp;Humidity;BMP_temperature;BMP_pressure;BME280_temperature;BME280_humidity;BME280_pressure;Samples;Min_cycle;Max_cycle;Signal;HPM_P1;HPM_P2
2023/10/10 00:01:44;;;;;;;6.50;2.10;;;;;;;19.82;50.53;93778.13;6016523;23;20366;-93
2023/10/10 00:04:13;;;;;;;4.68;2.15;;;;;;;19.80;50.59;93780.66;6038777;23;20023;-93
2023/10/10 00:06:39;;;;;;;4.70;2.15;;;;;;;19.78;50.67;93783.16;6016504;23;20019;-93
2023/10/10 00:09:08;;;;;;;5.38;1.98;;;;;;;19.81;50.54;93784.88;6015022;23;20030;-93
2023/10/10 00:11:36;;;;;;;3.53;1.80;;;;;;;19.80;50.56;93780.66;6015941;23;20023;-93
2023/10/10 00:14:05;;;;;;;3.95;2.22;;;;;;;19.81;50.45;93773.91;6015278;23;20351;-93
2023/10/10 00:16:37;;;;;;;4.80;2.20;;;;;;;19.81;50.75;93775.91;6038830;23;20019;-94
2023/10/10 00:21:51;;;;;;;5.00;2.22;;;;;;;19.83;50.49;93776.88;6042957;23;20043;-93
2023/10/10 00:24:20;;;;;;;4.38;1.85;;;;;;;19.80;50.56;93779.91;6000630;23;20027;-94
2023/10/10 00:26:47;;;;;;;4.82;2.33;;;;;;;19.79;50.49;93775.66;6015085;23;20019;-93
2023/10/10 00:29:13;;;;;;;4.65;2.05;;;;;;;19.80;50.54;93768.91;5956125;23;20047;-94
2023/10/10 00:31:43;;;;;;;5.22;2.63;;;;;;;19.79;50.65;93764.69;5957929;23;20027;-94
2023/10/10 00:34:09;;;;;;;3.75;2.40;;;;;;;19.80;50.46;93766.19;5935773;23;20020;-93
2023/10/10 00:36:35;;;;;;;3.63;2.25;;;;;;;19.81;50.65;93770.41;5956869;23;20064;-93
2023/10/10 00:41:44;;;;;;;3.40;2.30;;;;;;;19.82;50.38;93747.97;5960231;23;20098;-94
2023/10/10 00:44:16;;;;;;;5.10;2.85;;;;;;;19.80;50.26;93752.47;5958698;23;20105;-94
2023/10/10 00:46:47;;;;;;;3.83;2.10;;;;;;;19.79;50.50;93759.22;5959310;23;20036;-94
2023/10/10 00:49:17;;;;;;;3.72;1.90;;;;;;;19.78;50.49;93763.94;5956854;23;20086;-93
2023/10/10 00:51:48;;;;;;;4.57;2.10;;;;;;;19.79;50.40;93770.19;5957648;23;20519;-93
2023/10/10 00:54:26;;;;;;;3.50;1.92;;;;;;;19.77;50.36;93765.19;5957166;23;20087;-94
2023/10/10 00:56:56;;;;;;;5.03;2.47;;;;;;;19.79;50.49;93767.44;5945167;23;20047;-94
2023/10/10 00:59:28;;;;;;;3.40;2.37;;;;;;;19.79;50.30;93768.19;5965190;23;20485;-93
2023/10/10 01:01:54;;;;;;;4.95;2.30;;;;;;;19.81;50.42;93757.44;6038567;23;20066;-93
2023/10/10 01:04:38;;;;;;;6.70;2.38;;;;;;;19.79;50.46;93764.69;6013534;23;20015;-93
2023/10/10 01:07:07;;;;;;;3.83;1.90;;;;;;;19.81;50.38;93767.66;6018078;23;20090;-93
2023/10/10 01:09:34;;;;;;;4.90;2.20;;;;;;;19.77;50.41;93767.19;6015735;23;20109;-94
2023/10/10 01:12:04;;;;;;;3.75;2.40;;;;;;;19.79;50.59;93765.44;6038676;23;20030;-94
2023/10/10 01:14:35;;;;;;;3.95;2.20;;;;;;;19.81;50.56;93767.66;6014215;23;20074;-93
2023/10/10 01:17:05;;;;;;;3.83;2.25;;;;;;;19.80;50.26;93766.19;6014045;23;20019;-94
2023/10/10 01:19:31;;;;;;;3.88;2.00;;;;;;;19.79;50.52;93756.47;6004956;23;20030;-94
2023/10/10 01:22:03;;;;;;;3.55;2.05;;;;;;;19.77;50.74;93761.72;6009860;23;20121;-93
2023/10/10 01:24:31;;;;;;;3.30;1.77;;;;;;;19.78;50.42;93754.97;6014714;23;20025;-94
2023/10/10 01:27:13;;;;;;;6.45;2.67;;;;;;;19.77;50.45;93748.00;6015560;23;20059;-94
2023/10/10 01:29:49;;;;;;;4.30;2.15;;;;;;;19.78;50.38;93744.00;6020116;23;20018;-93
2023/10/10 01:32:17;;;;;;;3.97;2.38;;;;;;;19.77;50.46;93748.00;6017692;23;20154;-94
2023/10/10 01:34:43;;;;;;;4.50;2.05;;;;;;;19.76;50.69;93743.75;6015507;23;20019;-93
2023/10/10 01:37:20;;;;;;;3.70;2.08;;;;;;;19.77;50.47;93748.75;6014386;23;20027;-93
2023/10/10 01:39:54;;;;;;;3.75;1.88;;;;;;;19.77;50.40;93762.47;6023949;23;20015;-94
2023/10/10 01:42:32;;;;;;;5.18;2.20;;;;;;;19.76;50.61;93752.00;6016777;23;20023;-93
2023/10/10 01:44:59;;;;;;;4.18;2.03;;;;;;;19.78;50.68;93757.72;6039334;23;20030;-94
2023/10/10 01:47:26;;;;;;;4.10;1.90;;;;;;;19.79;50.66;93759.22;6040043;23;20030;-92
2023/10/10 01:49:54;;;;;;;4.60;2.50;;;;;;;19.82;50.63;93758.19;6017293;23;20026;-94
2023/10/10 01:52:21;;;;;;;6.53;2.33;;;;;;;19.81;50.54;93757.44;6015104;23;20022;-93
2023/10/10 01:54:52;;;;;;;4.85;2.45;;;;;;;19.80;50.56;93760.69;6041392;23;20050;-93
2023/10/10 01:57:21;;;;;;;4.55;2.20;;;;;;;19.81;50.42;93768.41;6017502;23;20380;-93
2023/10/10 01:59:48;;;;;;;6.60;2.42;;;;;;;19.77;50.25;93756.97;6018555;23;20365;-94
2023/10/10 02:02:16;;;;;;;6.43;2.88;;;;;;;19.79;50.39;93759.22;6016447;23;20023;-93
2023/10/10 02:04:43;;;;;;;5.25;2.00;;;;;;;19.78;50.43;93769.44;6018102;23;20018;-92
2023/10/10 02:07:22;;;;;;;3.65;2.00;;;;;;;19.79;50.37;93759.94;6016298;23;20026;-94
2023/10/10 02:09:59;;;;;;;3.60;2.00;;;;;;;19.76;50.46;93765.72;6019966;23;20466;-93
2023/10/10 02:12:26;;;;;;;4.70;2.10;;;;;;;19.77;50.38;93764.47;6018505;23;20047;-94
2023/10/10 02:14:54;;;;;;;5.60;2.30;;;;;;;19.79;50.72;93759.94;6017765;23;20078;-93
2023/10/10 02:17:22;;;;;;;3.53;2.28;;;;;;;19.77;50.43;93762.47;6016153;23;20391;-93
2023/10/10 02:19:59;;;;;;;3.67;2.10;;;;;;;19.78;50.41;93768.69;6005441;23;20030;-93
2023/10/10 02:22:47;;;;;;;5.05;1.98;;;;;;;19.75;50.47;93764.97;6018260;23;20015;-94
2023/10/10 02:28:11;;;;;;;3.35;1.85;;;;;;;19.80;50.46;93768.91;5983471;23;20484;-93
2023/10/10 02:30:50;;;;;;;5.03;2.10;;;;;;;19.78;50.37;93768.69;5943718;23;20110;-94
2023/10/10 02:35:56;;;;;;;3.63;1.80;;;;;;;19.78;50.38;93771.44;5974814;23;20020;-93
2023/10/10 02:38:25;;;;;;;2.58;1.55;;;;;;;19.77;50.32;93775.44;5961180;23;20023;-94
2023/10/10 02:40:55;;;;;;;4.35;2.00;;;;;;;19.76;50.55;93765.72;5981996;23;20039;-93
2023/10/10 02:43:45;;;;;;;3.83;2.00;;;;;;;19.76;50.50;93762.97;5959993;23;20035;-93
2023/10/10 02:46:12;;;;;;;3.35;2.03;;;;;;;19.77;50.68;93764.47;5975680;23;20384;-94
2023/10/10 02:48:42;;;;;;;3.42;2.03;;;;;;;19.77;50.33;93769.94;5958641;23;20031;-93
2023/10/10 02:51:07;;;;;;;5.60;2.60;;;;;;;19.75;50.44;93780.69;5959722;23;20020;-94
2023/10/10 02:53:33;;;;;;;3.58;2.13;;;;;;;19.77;50.19;93778.16;5959293;23;20483;-92
2023/10/10 02:56:01;;;;;;;3.58;1.77;;;;;;;19.76;50.39;93777.44;5959730;23;20077;-93
2023/10/10 02:58:28;;;;;;;3.80;1.88;;;;;;;19.74;50.73;93765.47;5959221;23;20027;-93
2023/10/10 03:00:57;;;;;;;5.63;2.28;;;;;;;19.74;50.47;93773.69;5960205;23;20020;-93
2023/10/10 03:03:24;;;;;;;3.35;2.28;;;;;;;19.75;50.44;93773.19;5958191;23;20494;-93
2023/10/10 03:05:55;;;;;;;4.72;2.03;;;;;;;19.75;50.27;93770.44;5959403;23;20076;-93
2023/10/10 03:08:34;;;;;;;4.93;1.95;;;;;;;19.74;50.60;93777.19;5936740;23;20027;-93
2023/10/10 03:11:02;;;;;;;4.47;2.50;;;;;;;19.75;50.58;93775.19;5979064;23;20023;-93
2023/10/10 03:13:35;;;;;;;4.50;2.17;;;;;;;19.75;50.55;93777.94;6016354;23;20026;-93
2023/10/10 03:19:13;;;;;;;4.88;2.15;;;;;;;19.76;50.46;93785.66;6021118;23;20051;-93
2023/10/10 03:27:00;;;;;;;6.00;2.40;;;;;;;19.76;50.75;93774.69;6021469;23;20463;-94
2023/10/10 03:32:59;;;;;;;;;;;;;;;;;;;;;
2023/10/10 03:35:52;;;;;;;3.13;1.80;;;;;;;19.91;50.75;93774.34;5973634;23;20409;-94
2023/10/10 03:38:57;;;;;;;29.70;21.20;;;;;;;19.96;50.55;93775.53;5952900;23;20117;-93
2023/10/10 05:23:51;;;;;;;155.57;77.38;;;;;;;19.76;51.75;93785.66;6113033;23;20083;-94
2023/10/10 05:33:05;;;;;;;149.55;74.07;;;;;;;19.76;51.92;93802.13;6100429;23;20026;-94
2023/10/10 05:35:39;;;;;;;149.48;70.28;;;;;;;19.79;51.59;93801.09;5996476;23;20137;-92
2023/10/10 05:38:08;;;;;;;153.10;70.88;;;;;;;19.82;51.49;93799.34;6035855;23;20035;-92
2023/10/10 05:40:34;;;;;;;127.65;64.97;;;;;;;19.81;51.56;93792.34;6039356;23;20399;-88
2023/10/10 05:43:00;;;;;;;150.02;66.97;;;;;;;19.84;51.38;93797.56;6038262;23;20041;-91
2023/10/10 05:45:26;;;;;;;150.02;72.10;;;;;;;19.84;51.49;93808.53;6036413;23;20019;-91
2023/10/10 05:47:51;;;;;;;150.98;78.28;;;;;;;19.83;51.55;93804.31;6015246;23;20033;-89
2023/10/10 05:50:19;;;;;;;164.35;79.90;;;;;;;19.88;51.33;93813.03;6025554;23;20022;-92
2023/10/10 05:52:53;;;;;;;157.35;74.88;;;;;;;19.86;51.34;93819.00;6015347;23;20019;-93
2023/10/10 05:55:50;;;;;;;;;;;;;;;;;;;;;
2023/10/10 05:58:28;;;;;;;181.45;86.88;;;;;;;19.92;51.24;93816.22;5976781;23;20546;-92
2023/10/10 06:00:54;;;;;;;167.43;88.68;;;;;;;19.88;51.42;93822.00;6032158;23;20050;-92
2023/10/10 06:03:23;;;;;;;193.60;100.22;;;;;;;19.99;50.99;93821.16;6066854;23;20041;-93
2023/10/10 06:06:12;;;;;;;184.45;99.30;;;;;;;19.99;51.28;93824.63;6019017;23;20131;-92
2023/10/10 06:08:44;;;;;;;179.93;103.15;;;;;;;20.05;51.21;93819.09;6043155;23;20078;-92
2023/10/10 06:11:15;;;;;;;170.13;94.47;;;;;;;20.10;51.32;93832.06;6016333;23;20023;-95
2023/10/10 06:13:44;;;;;;;163.15;94.20;;;;;;;20.11;50.67;93834.28;6013059;23;20018;-94
2023/10/10 06:16:13;;;;;;;149.02;90.25;;;;;;;20.15;51.09;93837.47;6015559;23;20018;-93
2023/10/10 06:18:41;;;;;;;153.70;88.55;;;;;;;20.11;51.03;93842.53;6018821;23;20727;-89
2023/10/10 06:21:14;;;;;;;146.35;88.68;;;;;;;20.13;51.17;93850.25;6008870;23;20038;-90
2023/10/10 06:23:41;;;;;;;139.77;83.13;;;;;;;20.11;50.85;93848.00;6014515;23;20031;-91
2023/10/10 06:26:14;;;;;;;119.30;77.55;;;;;;;20.10;50.77;93848.53;6005130;23;20026;-92
2023/10/10 06:28:47;;;;;;;122.28;73.38;;;;;;;20.06;50.94;93856.28;6016059;23;20027;-91
2023/10/10 06:31:14;;;;;;;128.48;78.68;;;;;;;20.05;51.03;93847.31;6017531;23;20023;-91
2023/10/10 06:33:40;;;;;;;128.68;79.90;;;;;;;20.13;50.81;93848.25;6016697;23;20034;-90
2023/10/10 06:41:38;;;;;;;210.88;125.00;;;;;;;20.01;50.90;93855.06;6009170;23;20078;-89
2023/10/10 06:44:04;;;;;;;253.95;147.63;;;;;;;20.02;51.18;93853.06;6005339;23;20053;-91
2023/10/10 06:47:04;;;;;;;;;;;;;;;;;;;;;
2023/10/10 06:49:56;;;;;;;285.27;178.57;;;;;;;20.08;50.90;93851.78;5994627;23;20102;-93
2023/10/10 06:52:27;;;;;;;301.60;187.35;;;;;;;20.01;50.95;93857.06;5998335;23;20250;-93
2023/10/10 06:55:27;;;;;;;;;;;;;;;20.02;51.12;93864.03;5998329;23;20052;-93
2023/10/10 06:57:59;;;;;;;296.30;185.23;;;;;;;20.01;51.23;93857.06;5973967;23;20455;-91
2023/10/10 07:12:09;;;;;;;330.13;207.35;;;;;;;20.02;51.23;93859.28;6121367;23;20025;-92
2023/10/10 07:14:46;;;;;;;386.27;241.02;;;;;;;20.05;51.07;93855.53;6050348;23;20059;-93
2023/10/10 07:26:25;;;;;;;419.92;258.98;;;;;;;20.06;51.17;93865.25;6130919;23;20030;-91
2023/10/10 07:29:25;;;;;;;381.40;237.25;;;;;;;20.05;51.11;93861.03;6036879;23;20031;-92
2023/10/10 07:32:18;;;;;;;358.77;226.85;;;;;;;20.05;51.10;93872.00;6062231;23;20026;-93
2023/10/10 07:34:49;;;;;;;364.23;231.95;;;;;;;20.12;50.80;93863.22;6047455;23;20399;-93
2023/10/10 07:37:19;;;;;;;349.00;225.68;;;;;;;20.11;51.01;93874.72;6028247;23;20018;-91
2023/10/10 07:42:30;;;;;;;324.70;213.23;;;;;;;20.08;51.22;93886.72;6109648;23;20075;-91
2023/10/10 07:45:03;;;;;;;326.77;207.77;;;;;;;20.08;51.08;93894.94;6082326;23;20014;-94
2023/10/10 07:48:20;;;;;;;299.48;186.70;;;;;;;20.12;51.32;93893.41;6106445;23;20015;-92
2023/10/10 07:50:24;;;;;;;286.27;181.98;;;;;;;20.09;51.26;93883.44;6116215;23;20022;-92
2023/10/10 07:52:54;;;;;;;279.55;174.10;;;;;;;20.08;51.22;93872.97;6084530;23;20010;-91
2023/10/10 08:00:36;;;;;;;247.90;149.60;;;;;;;20.10;51.20;93882.19;6125542;23;20022;-91
2023/10/10 08:03:06;;;;;;;236.68;144.88;;;;;;;20.11;50.87;93880.19;6105452;23;20018;-94
2023/10/10 08:05:32;;;;;;;;;;;;;;;20.13;51.11;93880.44;6080235;23;20454;-92
2023/10/10 08:08:05;;;;;;;269.08;152.52;;;;;;;20.12;51.12;93890.66;6107435;23;19923;-91
2023/10/10 08:10:38;;;;;;;273.65;151.05;;;;;;;20.10;51.26;93879.47;6084623;23;20104;-92
2023/10/10 08:13:10;;;;;;;261.13;142.15;;;;;;;20.09;51.37;93882.72;6066798;23;20021;-92
2023/10/10 08:16:03;;;;;;;243.27;137.80;;;;;;;20.11;51.42;93875.47;6085632;23;20052;-91
2023/10/10 08:21:14;;;;;;;246.02;142.07;;;;;;;20.22;50.96;93877.34;6116705;23;20032;-91
2023/10/10 08:23:46;;;;;;;171.68;100.22;;;;;;;20.11;51.64;93885.69;6050483;23;20061;-92
2023/10/10 08:26:19;;;;;;;154.02;84.65;;;;;;;20.08;52.35;93872.97;6097466;23;20032;-93
2023/10/10 08:28:45;;;;;;;132.95;62.42;;;;;;;20.05;52.46;93868.50;6082910;23;20033;-92
2023/10/10 08:31:13;;;;;;;129.98;60.15;;;;;;;20.06;52.56;93878.22;6023719;23;20022;-92
2023/10/10 08:33:49;;;;;;;102.30;50.15;;;;;;;19.97;52.85;93878.53;6080887;23;20032;-93
2023/10/10 08:37:03;;;;;;;93.80;46.00;;;;;;;19.92;53.04;93879.34;6064769;23;20108;-92
2023/10/10 08:51:49;;;;;;;44.20;23.83;;;;;;;19.79;54.51;93886.13;6022904;23;20038;-93
2023/10/10 08:54:23;;;;;;;57.05;27.45;;;;;;;19.82;54.28;93887.13;5957564;23;20027;-92
2023/10/10 08:57:10;;;;;;;45.42;23.63;;;;;;;19.84;54.66;93890.84;6010434;23;20026;-91
2023/10/10 08:59:36;;;;;;;73.10;28.17;;;;;;;19.75;54.62;93882.91;5986592;23;20106;-91
2023/10/10 09:02:08;;;;;;;51.35;22.70;;;;;;;19.81;54.73;93896.59;5985026;23;20030;-91
2023/10/10 09:04:34;;;;;;;55.35;24.92;;;;;;;19.75;54.94;93893.88;6006541;23;20374;-92
2023/10/10 09:07:08;;;;;;;63.83;22.35;;;;;;;19.73;55.05;93890.16;5970833;23;20034;-92
2023/10/10 09:09:35;;;;;;;42.60;17.65;;;;;;;19.69;55.29;93884.97;5986413;23;20019;-91
2023/10/10 09:12:12;;;;;;;65.00;25.50;;;;;;;19.70;55.04;93891.91;5988684;23;20027;-92
2023/10/10 09:14:44;;;;;;;54.00;23.73;;;;;;;19.76;54.97;93889.16;5989627;23;20063;-92
2023/10/10 09:17:34;;;;;;;58.50;28.58;;;;;;;19.80;54.30;93884.16;5987410;23;20031;-91
2023/10/10 09:20:12;;;;;;;67.43;29.45;;;;;;;19.82;54.50;93874.16;5992943;23;20485;-92
2023/10/10 09:22:45;;;;;;;57.05;26.60;;;;;;;19.85;54.41;93878.63;5982666;23;20066;-92
2023/10/10 09:25:31;;;;;;;63.33;31.23;;;;;;;19.88;54.24;93878.88;5945243;23;20058;-91
2023/10/10 09:28:08;;;;;;;91.20;45.55;;;;;;;19.92;53.83;93882.09;5975291;23;20071;-92
2023/10/10 09:30:45;;;;;;;89.10;41.40;;;;;;;19.99;54.24;93890.50;5994228;23;20035;-92
2023/10/10 09:33:22;;;;;;;77.07;40.05;;;;;;;19.95;53.89;93892.75;5993307;23;20029;-90
2023/10/10 09:36:08;;;;;;;83.43;41.55;;;;;;;19.97;53.69;93906.72;5992719;23;20050;-90
2023/10/10 09:38:36;;;;;;;103.63;49.22;;;;;;;19.97;54.14;93897.75;5994298;23;20083;-93
2023/10/10 09:44:25;;;;;;;60.25;29.77;;;;;;;19.85;54.84;93883.38;6020040;23;20437;-92
2023/10/10 09:46:59;;;;;;;69.10;27.30;;;;;;;19.80;55.16;93898.59;6032318;23;20038;-92
2023/10/10 09:49:45;;;;;;;61.28;28.52;;;;;;;19.89;54.85;93894.81;5998502;23;20112;-91
2023/10/10 09:55:39;;;;;;;68.13;29.27;;;;;;;19.88;55.08;93900.81;6073407;23;20385;-92
2023/10/10 10:00:34;;;;;;;48.67;22.63;;;;;;;19.78;55.51;93894.88;6065096;23;20027;-92
2023/10/10 10:03:25;;;;;;;49.97;21.80;;;;;;;19.76;55.68;93900.13;6029884;23;20089;-92
2023/10/10 10:05:58;;;;;;;169.82;109.55;;;;;;;19.84;55.82;93903.81;6069322;23;20058;-91
2023/10/10 10:08:24;;;;;;;69.78;31.75;;;;;;;19.85;56.11;93906.06;6050352;23;20053;-94
2023/10/10 10:11:11;;;;;;;43.78;21.55;;;;;;;19.84;55.90;93910.06;6044075;23;20026;-92
2023/10/10 10:14:11;;;;;;;34.05;16.42;;;;;;;19.88;55.94;93909.03;6068164;23;20050;-92
2023/10/10 10:16:44;;;;;;;;;;;;;;;19.84;55.97;93917.53;6070752;23;20349;-92
2023/10/10 10:19:15;;;;;;;76.78;54.70;;;;;;;19.80;56.39;93909.56;6070391;23;19979;-93
2023/10/10 10:24:32;;;;;;;23.20;13.32;;;;;;;19.78;56.56;93922.31;6062397;23;20078;-91
2023/10/10 10:29:56;;;;;;;65.75;52.55;;;;;;;19.78;56.91;93914.09;6075755;23;20029;-92
2023/10/10 10:32:24;;;;;;;52.90;31.73;;;;;;;19.81;57.00;93913.06;6046552;23;20078;-94
2023/10/10 10:34:57;;;;;;;21.20;12.32;;;;;;;19.81;57.16;93904.84;6045112;23;20050;-91
2023/10/10 10:37:24;;;;;;;23.52;12.35;;;;;;;19.89;56.97;93903.06;6045616;23;20028;-93
2023/10/10 10:42:49;;;;;;;24.83;11.70;;;;;;;19.85;57.13;93894.34;6068595;23;20521;-91
2023/10/10 10:45:33;;;;;;;28.83;11.20;;;;;;;19.87;57.12;93900.06;6065193;23;20023;-92
2023/10/10 10:48:02;;;;;;;22.45;10.63;;;;;;;19.86;56.79;93890.34;6036969;23;20066;-91
2023/10/10 10:50:29;;;;;;;28.20;11.35;;;;;;;19.93;57.10;93897.28;6001772;23;20030;-90
2023/10/10 10:52:59;;;;;;;24.20;11.98;;;;;;;19.87;57.04;93899.31;6040412;23;20492;-93
2023/10/10 10:55:41;;;;;;;30.38;15.10;;;;;;;19.83;57.29;93902.34;6007105;23;20034;-94
2023/10/10 10:58:20;;;;;;;30.73;16.42;;;;;;;19.80;57.39;93898.59;6006496;23;20022;-91
2023/10/10 11:03:45;;;;;;;27.50;12.65;;;;;;;19.81;57.58;93891.13;6031163;23;20019;-92
2023/10/10 11:06:14;;;;;;;27.13;10.68;;;;;;;19.83;57.51;93910.56;5985731;23;20533;-95
2023/10/10 11:14:01;;;;;;;23.38;10.43;;;;;;;19.83;57.63;93883.88;6024878;23;20023;-94
2023/10/10 11:16:39;;;;;;;19.73;9.65;;;;;;;19.87;57.82;93878.13;6018908;23;20023;-93
2023/10/10 11:27:54;;;;;;;24.63;10.93;;;;;;;19.93;57.49;93869.81;6060987;23;20344;-93
2023/10/10 11:31:07;;;;;;;22.50;10.48;;;;;;;19.93;57.33;93867.84;6050891;23;20010;-93
2023/10/10 11:38:15;;;;;;;50.45;21.27;;;;;;;19.96;57.53;93864.06;6080625;23;20127;-93
2023/10/10 11:41:09;;;;;;;50.97;21.80;;;;;;;19.96;57.46;93863.31;5790490;24;20483;-93
2023/10/10 11:46:28;;;;;;;43.70;18.63;;;;;;;20.02;56.97;93866.78;6090864;23;20024;-91
2023/10/10 11:49:15;;;;;;;32.97;17.17;;;;;;;20.00;57.15;93861.06;6051479;23;20098;-93
2023/10/10 11:51:43;;;;;;;38.78;17.00;;;;;;;20.01;56.89;93859.81;5983450;23;20026;-93
2023/10/10 11:54:09;;;;;;;38.53;16.75;;;;;;;20.01;56.98;93852.31;5974946;23;20023;-91
2023/10/10 11:56:36;;;;;;;35.05;15.85;;;;;;;19.99;57.09;93865.81;6080383;23;20026;-94
2023/10/10 11:59:45;;;;;;;25.15;13.48;;;;;;;20.02;57.18;93862.03;5994089;23;20437;-93
2023/10/10 12:03:11;;;;;;;45.22;21.10;;;;;;;20.01;56.95;93868.78;6078199;23;20025;-93
2023/10/10 12:06:21;;;;;;;48.35;22.95;;;;;;;20.03;56.82;93857.28;6110861;23;20022;-92
2023/10/10 12:09:05;;;;;;;54.45;25.30;;;;;;;20.08;56.97;93870.97;6056971;23;20395;-92
2023/10/10 12:20:55;;;;;;;43.80;23.90;;;;;;;20.10;56.69;93865.00;6107015;23;20023;-92
2023/10/10 12:23:57;;;;;;;;;;;;;;;;;;;;;
2023/10/10 12:30:56;;;;;;;49.60;23.63;;;;;;;20.10;56.73;93854.75;5879070;24;20033;-93
2023/10/10 12:36:09;;;;;;;53.72;35.38;;;;;;;20.36;56.66;93853.50;6167840;23;20017;-92
2023/10/10 12:38:42;;;;;;;45.72;29.88;;;;;;;20.27;56.36;93853.88;6140983;23;20028;-92
2023/10/10 12:41:48;;;;;;;50.63;31.20;;;;;;;20.26;56.59;93850.38;6040449;23;20022;-94
2023/10/10 12:44:13;;;;;;;27.55;16.40;;;;;;;20.31;55.85;93860.56;6146998;23;20045;-94
2023/10/10 12:46:41;;;;;;;32.42;19.38;;;;;;;20.37;56.30;93844.06;6059748;23;20029;-91
2023/10/10 12:59:07;;;;;;;36.85;19.40;;;;;;;20.30;55.70;93869.31;6142351;23;20029;-93
2023/10/10 13:02:15;;;;;;;30.67;18.60;;;;;;;20.23;56.04;93867.13;5968992;23;20034;-93
2023/10/10 13:04:51;;;;;;;54.40;27.67;;;;;;;20.26;55.79;93858.59;6083274;23;20045;-92
2023/10/10 13:07:18;;;;;;;68.68;35.70;;;;;;;20.26;55.63;93855.13;6029253;23;20484;-92
2023/10/10 13:09:46;;;;;;;61.58;33.33;;;;;;;20.23;55.77;93865.13;6031781;23;20026;-91
2023/10/10 13:12:18;;;;;;;47.28;25.50;;;;;;;20.24;55.71;93855.63;6021723;23;20438;-92
2023/10/10 13:15:00;;;;;;;;;;;;;;;;;;;;;
2023/10/10 13:18:19;;;;;;;41.30;19.52;;;;;;;20.16;55.77;93862.91;6040736;23;20040;-92
2023/10/10 13:20:54;;;;;;;43.15;19.70;;;;;;;20.15;55.64;93856.69;6125094;23;20066;-93
2023/10/10 13:23:41;;;;;;;42.42;19.50;;;;;;;20.18;55.68;93861.16;6045012;23;20015;-94
2023/10/10 13:36:43;;;;;;;34.45;18.02;;;;;;;20.19;55.68;93865.41;6106107;23;20026;-94
2023/10/10 13:39:53;;;;;;;;;;;;;;;;;;;;;
2023/10/10 13:42:20;;;;;;;91.78;38.67;;;;;;;20.31;55.25;93859.81;6033032;23;20049;-92
2023/10/10 13:49:08;;;;;;;106.93;50.42;;;;;;;20.23;54.56;93850.66;6071763;23;20022;-93
2023/10/10 13:51:39;;;;;;;136.02;57.58;;;;;;;20.19;55.15;93853.66;6045200;23;20387;-93
2023/10/10 13:54:15;;;;;;;120.10;59.28;;;;;;;20.20;55.06;93853.16;6023567;23;20023;-93
2023/10/10 13:57:15;;;;;;;127.55;61.40;;;;;;;20.23;54.87;93856.13;5988294;23;20429;-94
2023/10/10 14:05:37;;;;;;;167.40;79.82;;;;;;;20.26;54.70;93852.38;6159867;23;20025;-93
2023/10/10 14:11:10;;;;;;;169.82;75.82;;;;;;;20.26;54.66;93858.59;6085828;23;20029;-94
2023/10/10 14:13:44;;;;;;;149.88;75.65;;;;;;;20.24;54.86;93844.66;6107748;23;20021;-93
2023/10/10 14:16:10;;;;;;;141.68;74.82;;;;;;;20.27;54.80;93845.63;6047338;23;20025;-93
2023/10/10 14:18:42;;;;;;;156.07;80.75;;;;;;;20.30;54.86;93847.34;6050616;23;20580;-91
2023/10/10 14:21:08;;;;;;;134.75;73.50;;;;;;;20.32;54.58;93848.34;6045209;23;20034;-94
2023/10/10 14:24:09;;;;;;;;;;;;;;;;;;;;;
2023/10/10 14:26:54;;;;;;;121.30;66.63;;;;;;;20.24;54.61;93839.16;5972439;23;20003;-94
2023/10/10 14:50:36;;;;;;;;;;;;;;;;;;;;;
2023/10/10 14:58:15;;;;;;;61.83;32.90;;;;;;;20.34;54.31;93862.28;6103795;23;20026;-94
2023/10/10 15:00:43;;;;;;;59.65;34.42;;;;;;;20.34;54.59;93862.28;6090028;23;20100;-93
2023/10/10 15:12:14;;;;;;;49.15;25.77;;;;;;;20.34;54.42;93858.81;6067804;23;20026;-94
2023/10/10 15:14:42;;;;;;;48.40;25.05;;;;;;;20.32;54.47;93856.56;6034418;23;20023;-93
2023/10/10 15:17:12;;;;;;;52.35;25.23;;;;;;;20.35;54.34;93858.25;6027085;23;20028;-93
2023/10/10 15:19:41;;;;;;;43.58;22.77;;;;;;;20.40;54.12;93857.50;6089913;23;20026;-94
2023/10/10 15:23:11;;;;;;;37.97;22.33;;;;;;;20.32;54.27;93856.56;6082112;23;20017;-95
2023/10/10 15:31:45;;;;;;;38.47;19.00;;;;;;;20.30;54.31;93867.31;5894493;24;20025;-95
2023/10/10 15:34:48;;;;;;;34.80;19.50;;;;;;;20.33;54.46;93860.81;5880034;24;20021;-94
2023/10/10 15:37:19;;;;;;;36.45;17.65;;;;;;;20.32;54.52;93866.81;5790393;24;20027;-94
2023/10/10 15:40:30;;;;;;;31.55;17.10;;;;;;;20.30;54.24;93861.81;5792523;24;20061;-94
2023/10/10 15:43:47;;;;;;;31.05;16.58;;;;;;;20.31;54.42;93862.56;5816600;24;20023;-94
2023/10/10 15:49:34;;;;;;;28.08;17.13;;;;;;;20.26;54.34;93866.84;6116759;23;20014;-95
2023/10/10 15:52:36;;;;;;;25.15;15.27;;;;;;;20.26;54.38;93861.34;6010121;23;20023;-94
2023/10/10 15:55:52;;;;;;;;;;;;;;;;;;;;;
2023/10/10 15:58:43;;;;;;;;;;;;;;;;;;;;;
2023/10/10 16:07:11;;;;;;;24.15;12.98;;;;;;;20.19;54.95;93876.38;6111901;23;20048;-94
2023/10/10 16:16:39;;;;;;;;;;;;;;;;;;;;;
2023/10/10 16:19:45;;;;;;;20.63;10.68;;;;;;;20.17;55.00;93881.63;6054580;23;20030;-95
2023/10/10 16:30:39;;;;;;;18.75;11.50;;;;;;;20.16;55.09;93877.41;6142192;23;20022;-94
2023/10/10 16:33:21;;;;;;;22.08;13.80;;;;;;;20.16;54.79;93893.88;6093506;23;20028;-95
2023/10/10 16:37:19;;;;;;;25.20;13.95;;;;;;;20.17;55.00;93895.34;5949409;23;20015;-94
2023/10/10 16:53:14;;;;;;;15.32;9.73;;;;;;;20.13;54.90;93903.13;6051679;23;20029;-95
2023/10/10 17:05:50;;;;;;;;;;;;;;;;;;;;;
2023/10/10 17:09:26;;;;;;;19.83;11.25;;;;;;;20.07;55.09;93909.91;5903491;24;20020;-95
2023/10/10 17:20:21;;;;;;;20.30;11.48;;;;;;;20.09;55.08;93924.63;6153409;23;20025;-95
2023/10/10 17:40:23;;;;;;;;;;;;;;;;;;;;;
2023/10/10 17:43:47;;;;;;;;;;;;;;;;;;;;;
2023/10/10 17:50:22;;;;;;;14.57;8.75;;;;;;;20.06;55.21;93933.88;5930299;24;20073;-94
2023/10/10 17:53:30;;;;;;;14.15;8.55;;;;;;;20.05;55.05;93924.16;5834042;24;20070;-96
2023/10/10 18:55:34;;;;;;;14.93;8.98;;;;;;;20.04;54.42;93958.34;6102968;23;20024;-95
2023/10/10 18:59:01;;;;;;;14.90;9.30;;;;;;;20.03;54.35;93962.34;6060028;23;20014;-95
2023/10/10 19:22:08;;;;;;;10.80;7.22;;;;;;;20.04;54.15;93952.09;6092009;23;20054;-95
2023/10/10 19:25:55;;;;;;;;;;;;;;;;;;;;;
2023/10/10 19:42:27;;;;;;;12.38;7.75;;;;;;;20.03;53.72;93950.59;6100671;23;20022;-93
2023/10/10 20:40:42;;;;;;;7.95;5.40;;;;;;;19.97;53.48;93912.22;5984224;23;20047;-94
2023/10/10 22:33:51;;;;;;;6.95;3.92;;;;;;;19.93;53.14;93897.28;6119521;23;20025;31
2023/10/10 22:36:18;;;;;;;684.13;595.33;;;;;;;19.98;53.09;93893.75;5892364;24;20398;-92
2023/10/10 23:13:03;;;;;;;6.65;4.70;;;;;;;19.96;53.16;93877.78;6042102;23;20024;-94
2023/10/10 23:16:23;;;;;;;6.30;5.03;;;;;;;19.96;53.03;93874.31;6037946;23;20026;-94
2023/10/10 23:22:08;;;;;;;9.90;5.55;;;;;;;19.92;52.92;93877.31;5921491;24;20033;-94
